Plain Dealing, Louisiana
Current Conditions -  °F | °C
As of 8:53 PM on Friday 21 Nov 2014 (Local Time) from KDTN Reporting Station
Scattered Clouds Scattered Clouds  
Wind Chill: 56°   Ceiling: Unl
Heat Index: 56°   Visibility: 10mi
Dew Point: 49°   Wind: 6mph
Humidity: 77%   Direction: 120°ESE
Pressure: 30.2"   Gusts: NA
Location:  32.91°N, 93.7°W
Report Text: KDTN 220253Z 12005KT 10SM FEW085 SCT120 13/09 A3020 RMK AO2 SLP226 60001 T01330094 50004
Loading
Personal Weather Stations






























Interactive Weather Map New forecast layout! Learn more

10-Day Weather Forecast

Advertisements
Track Severe Weather on mobile